Time;durP1;ratioP1;P1;durP2;ratioP2;P2;SDS_P1;SDS_P2;PMS_P1;PMS_P2;Temp;Humidity;BMP_temperature;BMP_pressure;BME280_temperature;BME280_humidity;BME280_pressure;Samples;Min_cycle;Max_cycle;Signal;HPM_P1;HPM_P2
2022/03/11 00:01:37;;;;;;;10.13;4.60;;;6.80;91.30;;;;;;5039804;28;20064;-69
2022/03/11 00:04:02;;;;;;;12.43;4.00;;;6.90;91.20;;;;;;5039680;28;20025;-69
2022/03/11 00:06:28;;;;;;;10.67;5.37;;;6.90;91.10;;;;;;5011991;28;20340;-69
2022/03/11 00:08:55;;;;;;;12.85;5.28;;;7.00;91.10;;;;;;5054300;28;20086;-70
2022/03/11 00:11:20;;;;;;;16.80;4.78;;;7.00;91.10;;;;;;5056916;28;20025;-69
2022/03/11 00:13:46;;;;;;;11.37;4.87;;;7.00;91.20;;;;;;5057699;28;20037;-69
2022/03/11 00:16:12;;;;;;;11.05;5.20;;;7.00;91.20;;;;;;5057142;28;20320;-70
2022/03/11 00:18:37;;;;;;;8.38;4.75;;;7.00;91.10;;;;;;5057458;28;20024;-70
2022/03/11 00:21:03;;;;;;;14.63;5.03;;;6.80;91.50;;;;;;5039091;28;20067;-70
2022/03/11 00:23:29;;;;;;;9.82;4.97;;;6.70;91.30;;;;;;5057083;28;20017;-70
2022/03/11 00:25:55;;;;;;;12.98;5.18;;;6.70;91.10;;;;;;5039827;28;20357;-70
2022/03/11 00:28:20;;;;;;;12.03;6.17;;;6.70;91.40;;;;;;5056918;28;20170;-70
2022/03/11 00:30:47;;;;;;;14.50;5.07;;;6.60;91.70;;;;;;5057176;28;20036;-69
2022/03/11 00:33:12;;;;;;;13.38;4.85;;;6.50;92.10;;;;;;5057121;28;20112;-79
2022/03/11 00:35:38;;;;;;;9.40;4.95;;;6.40;92.30;;;;;;5056242;28;20163;-69
2022/03/11 00:38:04;;;;;;;9.80;5.13;;;6.40;92.40;;;;;;5062520;28;20053;-69
2022/03/11 00:40:30;;;;;;;12.67;4.63;;;6.40;92.60;;;;;;5064462;28;20025;-69
2022/03/11 00:42:55;;;;;;;13.67;5.37;;;6.30;92.80;;;;;;5056424;28;20032;-70
2022/03/11 00:45:22;;;;;;;12.02;5.25;;;6.30;93.00;;;;;;5056702;28;20411;-69
2022/03/11 00:47:48;;;;;;;11.30;5.10;;;6.30;93.00;;;;;;5056388;28;20036;-70
2022/03/11 00:50:13;;;;;;;11.82;5.60;;;6.30;93.20;;;;;;5055920;28;20029;-70
2022/03/11 00:52:41;;;;;;;12.10;6.23;;;6.30;92.80;;;;;;5055674;28;20108;-70
2022/03/11 00:55:08;;;;;;;13.65;6.05;;;6.30;92.90;;;;;;5038379;28;20408;-69
2022/03/11 00:57:33;;;;;;;11.77;5.43;;;6.30;92.90;;;;;;5038512;28;20068;-69
2022/03/11 00:59:59;;;;;;;17.80;6.20;;;6.40;92.90;;;;;;5056122;28;20068;-70
2022/03/11 01:02:25;;;;;;;10.63;4.73;;;6.40;92.90;;;;;;5056606;28;20029;-69
2022/03/11 01:04:50;;;;;;;11.60;5.53;;;6.30;93.20;;;;;;5055126;28;20429;-70
2022/03/11 01:07:16;;;;;;;13.45;5.03;;;6.30;93.00;;;;;;5048745;28;20025;-70
2022/03/11 01:09:42;;;;;;;12.47;5.67;;;6.20;93.30;;;;;;5056188;28;20036;-70
2022/03/11 01:12:08;;;;;;;13.13;5.10;;;6.20;93.10;;;;;;5056363;28;20036;-70
2022/03/11 01:14:33;;;;;;;13.83;5.27;;;6.20;93.30;;;;;;5056517;28;20044;-69
2022/03/11 01:16:59;;;;;;;16.55;6.30;;;6.20;93.20;;;;;;5056034;28;20031;-81
2022/03/11 01:19:25;;;;;;;11.90;5.20;;;6.20;93.30;;;;;;5055914;28;20066;-69
2022/03/11 01:21:51;;;;;;;17.42;5.85;;;6.10;93.30;;;;;;5058653;28;20048;-69
2022/03/11 01:24:16;;;;;;;14.73;5.45;;;6.10;93.40;;;;;;5055833;28;20032;-69
2022/03/11 01:26:42;;;;;;;9.97;5.50;;;6.20;93.20;;;;;;5055975;28;20078;-80
2022/03/11 01:29:08;;;;;;;16.73;6.93;;;6.10;93.60;;;;;;5036703;28;20055;-70
2022/03/11 01:31:33;;;;;;;13.60;5.32;;;6.10;93.70;;;;;;5054666;28;20480;-69
2022/03/11 01:33:59;;;;;;;13.50;5.83;;;6.00;93.80;;;;;;5037758;28;20024;-69
2022/03/11 01:36:25;;;;;;;8.33;4.83;;;6.00;93.70;;;;;;5055656;28;20029;-69
2022/03/11 01:38:50;;;;;;;16.40;5.47;;;5.90;93.70;;;;;;5055737;28;20056;-70
2022/03/11 01:41:16;;;;;;;12.55;5.75;;;5.90;93.80;;;;;;5055551;28;20024;-69
2022/03/11 01:43:59;;;;;;;13.80;5.90;;;5.90;93.60;;;;;;5015923;28;20032;-81
2022/03/11 01:46:25;;;;;;;11.20;5.22;;;5.90;93.70;;;;;;5054717;28;20017;-69
2022/03/11 01:48:51;;;;;;;10.30;5.30;;;5.90;93.70;;;;;;5025488;28;20751;-69
2022/03/11 01:51:17;;;;;;;11.67;5.40;;;5.90;93.80;;;;;;5044446;28;20151;-70
2022/03/11 01:53:44;;;;;;;11.33;4.83;;;5.90;93.70;;;;;;5053306;28;20040;-69
2022/03/11 01:56:10;;;;;;;18.88;5.60;;;5.90;93.80;;;;;;5049867;28;20266;-81
2022/03/11 01:58:37;;;;;;;15.30;6.03;;;5.80;94.10;;;;;;5053810;28;20448;-69
2022/03/11 02:01:04;;;;;;;20.30;5.80;;;5.80;93.70;;;;;;5036416;28;20061;-70
2022/03/11 02:03:31;;;;;;;14.20;5.43;;;5.70;93.90;;;;;;5055162;28;20017;-69
2022/03/11 02:05:59;;;;;;;12.00;5.78;;;5.70;93.70;;;;;;5055093;28;20420;-70
2022/03/11 02:08:25;;;;;;;15.45;5.55;;;5.70;93.70;;;;;;5055554;28;20412;-70
2022/03/11 02:10:52;;;;;;;11.27;5.57;;;5.70;93.80;;;;;;5054610;28;20033;-69
2022/03/11 02:13:18;;;;;;;11.32;5.32;;;5.70;93.70;;;;;;5055377;28;20033;-81
2022/03/11 02:15:44;;;;;;;11.02;4.78;;;5.60;93.90;;;;;;5055042;28;20051;-70
2022/03/11 02:18:10;;;;;;;13.40;4.90;;;5.70;93.70;;;;;;5054837;28;20157;-69
2022/03/11 02:20:36;;;;;;;13.37;5.80;;;5.60;93.80;;;;;;5051062;28;20041;-69
2022/03/11 02:23:03;;;;;;;11.17;6.00;;;5.60;94.10;;;;;;5055111;28;20439;-70
2022/03/11 02:25:29;;;;;;;14.57;6.38;;;5.50;94.30;;;;;;5055034;28;20021;-70
2022/03/11 02:27:55;;;;;;;14.63;6.45;;;5.50;94.20;;;;;;5054237;28;20411;-69
2022/03/11 02:30:21;;;;;;;9.73;4.13;;;5.50;94.10;;;;;;5055434;28;20032;-79
2022/03/11 02:32:48;;;;;;;11.98;5.15;;;5.60;94.20;;;;;;5036733;28;20034;-69
2022/03/11 02:35:15;;;;;;;11.48;5.72;;;5.50;94.40;;;;;;5055175;28;20040;-69
2022/03/11 02:37:41;;;;;;;13.15;6.03;;;5.50;94.50;;;;;;5020129;28;20059;-69
2022/03/11 02:40:07;;;;;;;14.85;6.18;;;5.40;94.50;;;;;;5054553;28;20132;-70
2022/03/11 02:42:33;;;;;;;11.05;5.85;;;5.40;94.80;;;;;;5055064;28;20047;-70
2022/03/11 02:45:00;;;;;;;13.60;5.60;;;5.30;94.80;;;;;;5055145;28;20112;-70
2022/03/11 02:47:27;;;;;;;16.05;5.65;;;5.30;95.10;;;;;;5036753;28;20052;-70
2022/03/11 02:49:53;;;;;;;14.90;6.85;;;5.30;95.00;;;;;;5036725;28;20033;-70
2022/03/11 02:52:19;;;;;;;16.67;6.83;;;5.20;95.20;;;;;;5017384;28;20033;-69
2022/03/11 02:54:44;;;;;;;11.00;6.00;;;5.30;95.00;;;;;;5034200;28;20065;-69
2022/03/11 02:57:10;;;;;;;15.40;6.07;;;5.30;95.10;;;;;;5034529;28;20029;-70
2022/03/11 02:59:36;;;;;;;13.40;5.90;;;5.30;95.30;;;;;;5054126;28;20061;-70
2022/03/11 03:02:01;;;;;;;10.90;5.83;;;5.20;95.20;;;;;;5053495;28;20037;-70
2022/03/11 03:04:27;;;;;;;15.10;7.22;;;5.20;95.60;;;;;;5055101;28;20485;-80
2022/03/11 03:06:55;;;;;;;12.67;6.13;;;5.10;95.60;;;;;;5060827;28;20041;-70
2022/03/11 03:09:21;;;;;;;14.45;5.68;;;5.20;95.70;;;;;;5058802;28;20052;-69
2022/03/11 03:11:46;;;;;;;10.13;4.40;;;5.10;95.70;;;;;;5058982;28;20083;-69
2022/03/11 03:14:12;;;;;;;11.93;5.93;;;5.10;95.50;;;;;;5058266;28;20375;-80
2022/03/11 03:16:38;;;;;;;8.37;4.53;;;5.10;95.50;;;;;;5023765;28;20056;-70
2022/03/11 03:19:03;;;;;;;15.10;6.63;;;5.10;95.50;;;;;;5058430;28;20036;-70
2022/03/11 03:21:29;;;;;;;14.17;6.10;;;5.10;95.90;;;;;;5040639;28;20432;-70
2022/03/11 03:23:55;;;;;;;11.80;5.83;;;5.10;95.90;;;;;;5040602;28;20067;-69
2022/03/11 03:26:20;;;;;;;13.07;5.47;;;5.10;95.90;;;;;;5058208;28;20029;-69
2022/03/11 03:28:49;;;;;;;17.23;6.63;;;5.00;96.10;;;;;;5057934;28;20041;-70
2022/03/11 03:31:18;;;;;;;16.30;7.18;;;5.00;96.00;;;;;;5058143;28;20033;-81
2022/03/11 03:33:44;;;;;;;14.07;6.45;;;5.00;96.10;;;;;;5058185;28;20029;-70
2022/03/11 03:36:10;;;;;;;13.13;5.80;;;5.00;96.20;;;;;;5059040;28;20029;-69
2022/03/11 03:38:35;;;;;;;12.27;6.57;;;5.00;96.20;;;;;;5058097;28;20436;-70
2022/03/11 03:41:01;;;;;;;10.17;4.73;;;5.00;96.10;;;;;;5040319;28;20044;-70
2022/03/11 03:43:27;;;;;;;11.87;6.43;;;5.00;96.10;;;;;;5051623;28;20111;-70
2022/03/11 03:45:52;;;;;;;14.73;5.45;;;5.00;96.00;;;;;;5057839;28;20025;-70
2022/03/11 03:48:19;;;;;;;16.40;6.67;;;5.00;96.30;;;;;;5057713;28;20029;-81
2022/03/11 03:50:45;;;;;;;11.88;6.47;;;5.00;96.20;;;;;;5058011;28;20025;-69
2022/03/11 03:53:11;;;;;;;15.33;6.43;;;4.90;96.20;;;;;;5040137;28;20049;-70
2022/03/11 03:55:37;;;;;;;12.87;6.80;;;4.80;96.50;;;;;;5056954;28;20056;-70
2022/03/11 03:58:02;;;;;;;14.40;5.13;;;4.90;96.50;;;;;;5055413;28;20082;-70
2022/03/11 04:00:28;;;;;;;8.27;4.63;;;4.80;96.60;;;;;;5057062;28;20511;-70
2022/03/11 04:02:54;;;;;;;14.13;5.60;;;4.80;96.60;;;;;;5057471;28;20036;-70
2022/03/11 04:05:19;;;;;;;7.67;3.90;;;4.80;96.40;;;;;;5039711;28;20029;-82
2022/03/11 04:07:46;;;;;;;11.30;5.70;;;4.80;96.50;;;;;;5039676;28;20423;-70
2022/03/11 04:10:13;;;;;;;13.00;5.88;;;4.80;96.70;;;;;;5057096;28;20090;-70
2022/03/11 04:12:40;;;;;;;15.60;6.85;;;4.90;96.80;;;;;;5039720;28;20041;-69
2022/03/11 04:15:07;;;;;;;14.60;5.97;;;4.80;96.80;;;;;;5057665;28;20083;-70
2022/03/11 04:17:32;;;;;;;;;;;4.80;96.70;;;;;;5043216;28;20037;-69
2022/03/11 04:19:59;;;;;;;12.70;5.93;;;4.80;97.00;;;;;;5039657;28;19908;-70
2022/03/11 04:22:25;;;;;;;;;;;4.70;97.00;;;;;;5057841;28;20032;-70
2022/03/11 04:24:51;;;;;;;11.57;5.82;;;4.70;97.30;;;;;;5057156;28;20222;-70
2022/03/11 04:27:17;;;;;;;12.13;5.00;;;4.60;97.60;;;;;;5054801;28;20110;-70
2022/03/11 04:29:42;;;;;;;12.33;6.10;;;4.60;97.60;;;;;;5037857;28;20032;-69
2022/03/11 04:32:08;;;;;;;16.60;6.47;;;4.50;97.60;;;;;;5052456;28;20423;-70
2022/03/11 04:34:34;;;;;;;13.63;6.40;;;4.50;97.60;;;;;;5054762;28;20163;-69
2022/03/11 04:37:00;;;;;;;13.97;5.67;;;4.50;97.70;;;;;;5035276;28;20021;-69
2022/03/11 04:39:26;;;;;;;11.53;5.73;;;4.50;98.00;;;;;;5054263;28;20052;-69
2022/03/11 04:41:55;;;;;;;15.30;6.68;;;4.40;98.30;;;;;;5033625;28;20496;-69
2022/03/11 04:44:22;;;;;;;12.77;5.68;;;4.40;98.10;;;;;;5055889;28;20036;-69
2022/03/11 04:46:48;;;;;;;18.67;7.10;;;4.40;98.40;;;;;;5057337;28;20036;-70
2022/03/11 04:49:14;;;;;;;13.87;6.40;;;4.30;98.70;;;;;;5052200;28;20064;-70
2022/03/11 04:51:40;;;;;;;7.73;4.47;;;4.30;98.60;;;;;;5050037;28;20262;-70
2022/03/11 04:54:06;;;;;;;8.20;3.53;;;4.40;98.60;;;;;;5045931;28;20036;-70
2022/03/11 04:56:32;;;;;;;13.07;4.68;;;4.30;98.80;;;;;;5048477;28;20366;-81
2022/03/11 04:58:58;;;;;;;15.63;5.88;;;4.30;98.80;;;;;;5046014;28;20057;-70
2022/03/11 05:01:24;;;;;;;11.05;5.85;;;4.30;98.80;;;;;;5048181;28;20358;-69
2022/03/11 05:03:50;;;;;;;13.33;6.10;;;4.30;98.90;;;;;;5044543;28;20041;-70
2022/03/11 05:06:16;;;;;;;12.63;6.00;;;4.30;98.80;;;;;;5056007;28;20029;-71
2022/03/11 05:08:42;;;;;;;16.40;5.57;;;4.20;99.00;;;;;;5057106;28;20039;-70
2022/03/11 05:11:08;;;;;;;12.57;5.50;;;4.20;99.20;;;;;;5061457;28;20378;-69
2022/03/11 05:13:33;;;;;;;17.63;5.90;;;4.20;99.10;;;;;;5060552;28;20111;-74
2022/03/11 05:15:59;;;;;;;14.30;6.00;;;4.20;99.10;;;;;;5056343;28;20028;-70
2022/03/11 05:18:25;;;;;;;8.67;4.33;;;4.20;99.20;;;;;;5056114;28;20108;-70
2022/03/11 05:20:51;;;;;;;12.07;6.07;;;4.30;99.40;;;;;;5055852;28;20374;-70
2022/03/11 05:23:17;;;;;;;14.43;5.33;;;4.20;99.50;;;;;;5055381;28;20312;-70
2022/03/11 05:25:43;;;;;;;11.33;5.83;;;4.10;99.30;;;;;;5033090;28;20029;-70
2022/03/11 05:28:08;;;;;;;11.67;5.30;;;4.20;99.20;;;;;;5054597;28;20052;-70
2022/03/11 05:30:36;;;;;;;16.27;6.63;;;4.20;99.40;;;;;;5055750;28;20036;-70
2022/03/11 05:33:03;;;;;;;10.48;5.60;;;4.20;99.60;;;;;;5036569;28;20454;-70
2022/03/11 05:35:29;;;;;;;10.18;5.60;;;4.10;99.60;;;;;;5054827;28;20028;-70
2022/03/11 05:37:55;;;;;;;12.07;5.43;;;4.20;99.50;;;;;;5031759;28;20029;-69
2022/03/11 05:40:20;;;;;;;14.37;5.57;;;4.10;99.50;;;;;;5047782;28;20033;-80
2022/03/11 05:42:46;;;;;;;11.23;5.57;;;4.10;99.60;;;;;;5033922;28;20116;-70
2022/03/11 05:45:12;;;;;;;14.03;5.40;;;4.20;99.40;;;;;;5035126;28;20033;-70
2022/03/11 05:47:38;;;;;;;15.33;6.60;;;4.20;99.30;;;;;;5039328;28;20324;-70
2022/03/11 05:50:04;;;;;;;15.23;6.25;;;4.30;99.40;;;;;;5055556;28;20488;-70
2022/03/11 05:52:30;;;;;;;11.18;5.65;;;4.20;99.60;;;;;;5056603;28;20033;-70
2022/03/11 05:54:56;;;;;;;17.70;6.40;;;4.10;99.60;;;;;;5053718;28;20120;-70
2022/03/11 05:57:21;;;;;;;14.73;5.83;;;4.20;99.80;;;;;;5053932;28;20036;-80
2022/03/11 05:59:47;;;;;;;13.23;5.57;;;4.20;99.70;;;;;;5051558;28;20375;-70
2022/03/11 06:02:13;;;;;;;11.00;5.73;;;4.20;99.40;;;;;;5056075;28;20040;-69
2022/03/11 06:04:39;;;;;;;11.77;5.17;;;4.20;99.60;;;;;;5049483;28;20048;-69
2022/03/11 06:07:05;;;;;;;8.80;4.93;;;4.10;99.50;;;;;;5053069;28;20312;-70
2022/03/11 06:09:30;;;;;;;14.68;5.85;;;4.20;99.80;;;;;;5052879;28;20075;-69
2022/03/11 06:11:56;;;;;;;13.10;6.13;;;4.20;99.60;;;;;;5053251;28;20041;-69
2022/03/11 06:14:22;;;;;;;10.80;4.60;;;4.20;99.60;;;;;;5062166;28;20025;-69
2022/03/11 06:16:48;;;;;;;11.13;5.97;;;4.30;99.50;;;;;;5054573;28;20035;-69
2022/03/11 06:19:14;;;;;;;13.00;5.07;;;4.30;99.70;;;;;;5054315;28;20037;-69
2022/03/11 06:21:39;;;;;;;10.32;5.25;;;4.30;99.30;;;;;;5054881;28;20032;-69
2022/03/11 06:24:06;;;;;;;14.27;6.20;;;4.40;99.30;;;;;;5054191;28;20586;-70
2022/03/11 06:26:31;;;;;;;8.25;3.90;;;4.40;99.30;;;;;;5054532;28;20036;-69
2022/03/11 06:28:57;;;;;;;14.03;4.87;;;4.50;99.10;;;;;;5054786;28;20108;-69
2022/03/11 06:31:22;;;;;;;15.73;5.43;;;4.50;99.10;;;;;;5054072;28;20021;-69
2022/03/11 06:33:48;;;;;;;9.83;4.90;;;4.50;99.10;;;;;;5054871;28;20121;-69
2022/03/11 06:36:14;;;;;;;10.10;4.33;;;4.60;99.20;;;;;;5054340;28;20472;-69
2022/03/11 06:38:39;;;;;;;17.33;5.23;;;4.70;98.90;;;;;;5054347;28;20048;-70
2022/03/11 06:41:05;;;;;;;13.43;6.07;;;4.80;98.80;;;;;;5035841;28;20115;-70
2022/03/11 06:43:31;;;;;;;9.97;4.60;;;4.80;98.70;;;;;;5056445;28;20366;-69
2022/03/11 06:45:57;;;;;;;12.13;6.43;;;4.90;98.60;;;;;;5054424;28;20035;-69
2022/03/11 06:48:22;;;;;;;10.20;4.90;;;5.00;98.50;;;;;;5053908;28;20028;-82
2022/03/11 06:50:48;;;;;;;12.50;5.43;;;5.00;98.40;;;;;;5054323;28;20075;-69
2022/03/11 06:53:15;;;;;;;11.32;5.38;;;5.10;98.10;;;;;;5036820;28;20041;-70
2022/03/11 06:55:41;;;;;;;23.48;5.72;;;5.20;97.90;;;;;;5054311;28;20133;-69
2022/03/11 06:58:07;;;;;;;13.77;6.13;;;5.30;97.80;;;;;;5054541;28;20049;-69
2022/03/11 07:00:33;;;;;;;14.47;5.93;;;5.40;97.80;;;;;;5035861;28;20095;-70
2022/03/11 07:02:58;;;;;;;6.20;3.37;;;5.60;97.40;;;;;;5054277;28;20316;-70
2022/03/11 07:05:25;;;;;;;12.70;5.07;;;5.90;96.90;;;;;;5036324;28;20300;-69
2022/03/11 07:07:51;;;;;;;13.77;6.18;;;6.20;96.40;;;;;;5052013;28;20036;-70
2022/03/11 07:10:17;;;;;;;11.07;4.63;;;6.70;95.50;;;;;;5021467;28;20037;-69
2022/03/11 07:12:43;;;;;;;11.85;5.88;;;7.30;94.50;;;;;;5051632;28;20032;-70
2022/03/11 07:15:10;;;;;;;9.02;4.07;;;7.90;93.90;;;;;;5052631;28;20353;-70
2022/03/11 07:17:35;;;;;;;11.97;4.80;;;8.50;92.40;;;;;;5051003;28;20033;-70
2022/03/11 07:20:05;;;;;;;10.45;5.40;;;8.70;91.20;;;;;;5053342;28;20265;-70
2022/03/11 07:22:34;;;;;;;11.00;5.32;;;8.90;91.00;;;;;;5031044;28;20061;-70
2022/03/11 07:25:01;;;;;;;11.35;5.65;;;9.10;91.10;;;;;;5051452;28;20025;-70
2022/03/11 07:27:27;;;;;;;11.40;6.05;;;9.10;90.70;;;;;;5053785;28;20028;-70
2022/03/11 07:29:56;;;;;;;12.63;6.75;;;9.10;90.70;;;;;;5052675;28;20029;-70
2022/03/11 07:32:22;;;;;;;11.55;4.60;;;9.30;90.70;;;;;;5041862;28;20024;-82
2022/03/11 07:34:48;;;;;;;12.63;6.20;;;9.50;90.00;;;;;;5043397;28;20466;-70
2022/03/11 07:37:13;;;;;;;12.65;6.13;;;9.60;89.80;;;;;;5052675;28;20056;-70
2022/03/11 07:39:40;;;;;;;12.23;5.97;;;9.60;90.00;;;;;;5052280;28;20039;-70
2022/03/11 07:42:06;;;;;;;11.88;5.80;;;9.60;89.70;;;;;;5052314;28;20099;-70
2022/03/11 07:44:33;;;;;;;12.27;4.57;;;9.50;89.50;;;;;;5051183;28;20368;-70
2022/03/11 07:46:59;;;;;;;13.32;6.68;;;9.30;88.80;;;;;;5052353;28;20036;-70
2022/03/11 07:49:25;;;;;;;12.23;5.43;;;9.60;90.00;;;;;;5050477;28;20319;-71
2022/03/11 07:51:51;;;;;;;12.73;5.72;;;9.70;89.00;;;;;;5034264;28;20494;-70
2022/03/11 07:54:16;;;;;;;16.93;6.77;;;9.90;88.00;;;;;;5019402;28;20128;-70
2022/03/11 07:56:42;;;;;;;10.60;4.95;;;9.90;88.60;;;;;;5054136;28;20039;-70
2022/03/11 07:59:08;;;;;;;13.63;5.33;;;10.10;88.30;;;;;;5057221;28;20062;-70
2022/03/11 08:01:34;;;;;;;16.47;6.87;;;10.10;88.00;;;;;;5057142;28;20037;-79
2022/03/11 08:04:00;;;;;;;11.40;5.67;;;10.00;88.00;;;;;;5056934;28;20052;-81
2022/03/11 08:06:25;;;;;;;10.93;5.70;;;10.00;87.90;;;;;;5057177;28;20637;-71
2022/03/11 08:08:51;;;;;;;11.43;3.77;;;10.30;87.90;;;;;;5039807;28;20119;-79
2022/03/11 08:11:17;;;;;;;10.80;5.20;;;10.50;86.80;;;;;;5057409;28;20029;-70
2022/03/11 08:13:42;;;;;;;12.20;6.00;;;10.30;87.10;;;;;;5037857;28;20082;-81
2022/03/11 08:16:08;;;;;;;12.77;5.57;;;10.40;87.30;;;;;;5057169;28;20036;-71
2022/03/11 08:18:35;;;;;;;10.63;5.28;;;10.80;85.80;;;;;;5057261;28;20063;-81
2022/03/11 08:21:02;;;;;;;13.05;6.43;;;10.60;86.90;;;;;;5057184;28;20714;-72
2022/03/11 08:23:28;;;;;;;15.25;5.90;;;10.70;87.70;;;;;;5057306;28;20045;-70
2022/03/11 08:25:54;;;;;;;9.30;4.77;;;11.10;86.10;;;;;;5039326;28;20032;-72
2022/03/11 08:28:22;;;;;;;14.70;6.05;;;10.90;85.70;;;;;;5056973;28;20266;-70
2022/03/11 08:30:48;;;;;;;11.82;5.60;;;10.80;86.40;;;;;;5057019;28;20063;-71
2022/03/11 08:33:14;;;;;;;14.00;6.13;;;10.90;86.10;;;;;;5056815;28;20113;-72
2022/03/11 08:35:40;;;;;;;13.30;6.17;;;11.00;86.20;;;;;;5057136;28;20431;-81
2022/03/11 08:38:06;;;;;;;10.63;5.70;;;11.20;86.20;;;;;;5038998;28;20052;-70
2022/03/11 08:40:35;;;;;;;13.80;5.13;;;11.40;85.40;;;;;;5056713;28;20028;-81
2022/03/11 08:43:02;;;;;;;13.07;6.47;;;11.50;85.40;;;;;;5056913;28;20150;-70
2022/03/11 08:45:27;;;;;;;17.33;6.90;;;11.30;84.90;;;;;;5039045;28;20179;-70
2022/03/11 08:47:53;;;;;;;10.23;4.77;;;11.40;85.20;;;;;;5057057;28;20442;-70
2022/03/11 08:50:20;;;;;;;11.02;6.00;;;11.20;85.30;;;;;;5056462;28;20412;-71
2022/03/11 08:52:46;;;;;;;7.93;4.53;;;11.30;86.20;;;;;;5056097;28;20107;-70
2022/03/11 08:55:14;;;;;;;17.98;5.97;;;11.40;84.50;;;;;;5055733;28;20526;-81
2022/03/11 08:57:40;;;;;;;15.38;6.13;;;11.30;85.30;;;;;;5055189;28;20043;-80
2022/03/11 09:00:13;;;;;;;11.48;5.57;;;11.30;85.90;;;;;;5049583;28;20043;-70
2022/03/11 09:02:39;;;;;;;11.00;5.00;;;11.50;84.90;;;;;;5052552;28;20289;-70
2022/03/11 09:05:06;;;;;;;15.23;7.32;;;11.60;84.90;;;;;;5030992;28;20107;-80
2022/03/11 09:07:32;;;;;;;12.45;6.25;;;11.80;84.10;;;;;;5054203;28;20031;-70
2022/03/11 09:09:59;;;;;;;11.25;5.57;;;11.90;84.50;;;;;;5053982;28;20041;-71
2022/03/11 09:12:25;;;;;;;;;;;12.00;83.00;;;;;;5054315;28;20021;-72
2022/03/11 09:14:50;;;;;;;11.53;5.90;;;11.80;83.60;;;;;;5043108;28;19970;-82
2022/03/11 09:17:16;;;;;;;15.20;6.20;;;11.90;84.40;;;;;;5054381;28;20051;-71
2022/03/11 09:19:43;;;;;;;11.82;5.50;;;11.90;83.40;;;;;;5053277;28;20522;-71
2022/03/11 09:22:11;;;;;;;18.67;6.88;;;11.70;83.50;;;;;;5038117;28;20119;-70
2022/03/11 09:24:40;;;;;;;13.32;5.57;;;11.70;84.10;;;;;;5053056;28;20029;-70
2022/03/11 09:27:11;;;;;;;12.50;5.70;;;11.80;83.50;;;;;;5051601;28;20075;-70
2022/03/11 09:29:37;;;;;;;16.85;6.95;;;11.80;86.10;;;;;;5053366;28;20095;-70
2022/03/11 09:32:03;;;;;;;16.10;6.90;;;11.90;84.70;;;;;;5054089;28;20025;-71
2022/03/11 09:34:30;;;;;;;14.90;7.67;;;12.30;84.70;;;;;;5055036;28;20032;-70
2022/03/11 09:36:56;;;;;;;20.27;7.10;;;12.70;83.30;;;;;;5033615;28;20025;-71
2022/03/11 09:39:22;;;;;;;9.77;5.80;;;12.40;84.50;;;;;;5054349;28;20098;-71
2022/03/11 09:41:49;;;;;;;15.57;8.00;;;12.30;83.80;;;;;;5054497;28;20086;-71
2022/03/11 09:44:16;;;;;;;12.02;5.43;;;12.50;85.40;;;;;;5046408;28;20315;-70
2022/03/11 09:46:42;;;;;;;15.15;7.30;;;12.80;83.50;;;;;;5037738;28;20029;-75
2022/03/11 09:49:08;;;;;;;16.83;6.57;;;12.80;82.20;;;;;;5062470;28;20424;-71
2022/03/11 09:51:35;;;;;;;21.25;7.60;;;12.70;83.10;;;;;;5037365;28;20094;-70
2022/03/11 09:54:01;;;;;;;;;;;12.70;83.90;;;;;;5060385;28;20037;-70
2022/03/11 09:56:27;;;;;;;14.65;8.07;;;12.80;82.40;;;;;;5054978;28;19916;-71
2022/03/11 09:58:56;;;;;;;15.97;7.37;;;12.90;84.70;;;;;;5037148;28;20044;-80
2022/03/11 10:01:22;;;;;;;13.30;6.88;;;13.20;84.00;;;;;;5053481;28;20028;-71
2022/03/11 10:03:48;;;;;;;14.70;6.68;;;13.20;82.40;;;;;;5047037;28;20087;-80
2022/03/11 10:06:13;;;;;;;16.33;7.53;;;13.00;83.90;;;;;;5052339;28;20657;-71
2022/03/11 10:08:44;;;;;;;14.50;7.67;;;12.90;83.70;;;;;;5046020;28;20049;-71
2022/03/11 10:11:23;;;;;;;17.02;7.20;;;13.00;86.10;;;;;;5029023;28;20324;-71
2022/03/11 10:13:54;;;;;;;14.50;7.35;;;13.20;85.20;;;;;;5057018;28;20439;-71
2022/03/11 10:16:25;;;;;;;14.38;7.70;;;13.10;82.80;;;;;;5047387;28;20083;-80
2022/03/11 10:19:08;;;;;;;19.25;7.38;;;13.00;86.10;;;;;;5055304;28;20033;-70
2022/03/11 10:21:40;;;;;;;15.82;7.15;;;13.10;83.80;;;;;;5054876;28;20324;-71
2022/03/11 10:24:13;;;;;;;16.70;6.97;;;13.10;84.50;;;;;;5036982;28;20052;-72
2022/03/11 10:26:42;;;;;;;20.27;7.18;;;13.20;85.30;;;;;;5053838;28;20029;-71
2022/03/11 10:29:31;;;;;;;13.35;6.20;;;13.10;86.60;;;;;;5053698;28;20017;-72
2022/03/11 10:31:58;;;;;;;16.98;7.45;;;13.20;85.90;;;;;;5054146;28;20416;-71
2022/03/11 10:34:29;;;;;;;;;;;13.30;86.10;;;;;;5054426;28;20061;-81
2022/03/11 10:37:02;;;;;;;12.43;6.50;;;13.50;84.90;;;;;;5032786;28;20000;-72
2022/03/11 10:39:38;;;;;;;21.50;8.55;;;13.50;84.80;;;;;;5051698;28;20064;-71
2022/03/11 10:42:20;;;;;;;14.87;6.60;;;13.40;83.50;;;;;;5047231;28;20503;-71
2022/03/11 10:45:03;;;;;;;16.50;7.57;;;13.50;84.60;;;;;;5025102;28;20052;-71
2022/03/11 10:47:38;;;;;;;13.25;6.30;;;13.50;84.70;;;;;;5051089;28;20060;-71
2022/03/11 10:50:12;;;;;;;14.95;7.93;;;13.30;84.80;;;;;;5049688;28;20021;-71
2022/03/11 10:52:48;;;;;;;11.75;7.53;;;13.50;85.60;;;;;;5060761;28;20020;-71
2022/03/11 10:55:28;;;;;;;14.05;7.60;;;13.60;86.00;;;;;;5054500;28;20222;-72
2022/03/11 10:57:59;;;;;;;17.40;8.30;;;13.50;84.40;;;;;;5050439;28;20331;-71
2022/03/11 11:00:40;;;;;;;13.05;6.25;;;13.30;84.40;;;;;;5041668;28;20116;-71
2022/03/11 11:03:08;;;;;;;12.90;5.78;;;13.30;85.00;;;;;;5046788;28;20360;-71
2022/03/11 11:05:35;;;;;;;13.65;6.93;;;13.40;84.80;;;;;;5037341;28;20179;-81
2022/03/11 11:08:02;;;;;;;16.17;7.40;;;13.30;83.80;;;;;;5053611;28;20029;-71
2022/03/11 11:10:30;;;;;;;13.40;5.68;;;13.30;85.60;;;;;;5037047;28;20031;-72
2022/03/11 11:12:56;;;;;;;16.98;7.40;;;13.30;84.30;;;;;;5053910;28;20052;-71
2022/03/11 11:15:22;;;;;;;20.08;7.72;;;13.40;85.10;;;;;;5040090;28;20309;-72
2022/03/11 11:17:50;;;;;;;13.70;7.50;;;13.40;85.50;;;;;;5054491;28;20323;-72
2022/03/11 11:20:20;;;;;;;16.85;8.15;;;13.50;84.70;;;;;;5053291;28;20079;-75
2022/03/11 11:22:48;;;;;;;14.40;7.53;;;13.50;85.00;;;;;;5053573;28;20029;-75
2022/03/11 11:25:17;;;;;;;13.98;6.25;;;13.50;85.70;;;;;;5053336;28;20108;-75
2022/03/11 11:27:44;;;;;;;20.00;9.00;;;13.50;84.50;;;;;;5057939;28;20032;-74
2022/03/11 11:30:11;;;;;;;17.58;8.52;;;13.60;85.30;;;;;;5056355;28;20306;-75
2022/03/11 11:32:38;;;;;;;17.92;8.38;;;13.80;86.20;;;;;;5056859;28;20362;-74
2022/03/11 11:35:25;;;;;;;17.17;8.05;;;13.90;84.60;;;;;;5056503;28;20139;-80
2022/03/11 11:37:51;;;;;;;17.02;8.65;;;13.90;85.40;;;;;;5047024;28;20024;-75
2022/03/11 11:40:23;;;;;;;23.60;7.22;;;14.10;85.80;;;;;;5047116;28;20029;-77
2022/03/11 11:43:10;;;;;;;28.17;8.35;;;14.10;84.90;;;;;;5040005;28;20021;-75
2022/03/11 11:45:51;;;;;;;17.38;8.68;;;14.10;85.50;;;;;;5054084;28;20115;-75
2022/03/11 11:48:32;;;;;;;15.95;7.78;;;14.10;83.90;;;;;;5060241;28;20025;-76
2022/03/11 11:51:03;;;;;;;19.90;8.85;;;14.10;85.60;;;;;;5043951;28;20035;-75
2022/03/11 11:53:32;;;;;;;18.20;8.23;;;14.10;84.00;;;;;;5038851;28;20124;-80
2022/03/11 11:55:59;;;;;;;17.92;8.32;;;14.10;85.30;;;;;;5041548;28;20033;-76
2022/03/11 11:58:24;;;;;;;17.90;8.07;;;14.20;84.80;;;;;;5042844;28;20033;-76
2022/03/11 12:00:57;;;;;;;16.80;6.90;;;14.30;86.00;;;;;;5052193;28;20037;-83
2022/03/11 12:03:48;;;;;;;15.82;8.35;;;14.50;83.10;;;;;;5052428;28;20021;-75
2022/03/11 12:06:54;;;;;;;16.20;8.75;;;14.40;84.90;;;;;;5042422;28;20135;-76
2022/03/11 12:09:42;;;;;;;23.45;8.43;;;14.50;84.90;;;;;;5042290;28;20450;-75
2022/03/11 12:12:32;;;;;;;17.17;9.00;;;14.70;84.50;;;;;;5032503;28;20462;-84
2022/03/11 12:15:04;;;;;;;16.15;8.05;;;14.90;84.00;;;;;;5029616;28;20110;-85
2022/03/11 12:17:38;;;;;;;19.50;9.90;;;14.90;84.30;;;;;;5050960;28;20061;-77
2022/03/11 12:20:31;;;;;;;18.10;8.43;;;14.90;83.00;;;;;;5043320;28;20103;-77
2022/03/11 12:23:11;;;;;;;16.15;8.40;;;14.80;83.80;;;;;;5051304;28;20116;-76
2022/03/11 12:25:57;;;;;;;16.02;7.90;;;14.90;82.50;;;;;;5051137;28;20060;-75
2022/03/11 12:28:31;;;;;;;16.45;8.63;;;14.90;82.30;;;;;;5057346;28;20044;-76
2022/03/11 12:31:34;;;;;;;16.23;8.93;;;14.90;84.20;;;;;;5049485;28;20390;-76
2022/03/11 12:34:04;;;;;;;22.48;8.82;;;15.10;84.00;;;;;;5048759;28;20037;-77
2022/03/11 12:36:32;;;;;;;16.58;7.00;;;15.00;83.10;;;;;;5051381;28;20029;-76
2022/03/11 12:38:57;;;;;;;;;;;15.10;82.00;;;;;;5049516;28;20381;-75
2022/03/11 12:41:24;;;;;;;20.80;9.07;;;15.00;81.50;;;;;;5050581;28;19920;-76
2022/03/11 12:43:50;;;;;;;19.90;8.85;;;14.90;84.70;;;;;;5051614;28;20025;-75
2022/03/11 12:46:16;;;;;;;20.80;9.35;;;14.90;81.80;;;;;;5037850;28;20121;-75
2022/03/11 12:48:44;;;;;;;17.13;8.40;;;14.90;84.00;;;;;;5035609;28;20119;-76